Date,TemperatureHighF,TemperatureAvgF,TemperatureLowF,DewpointHighF,DewpointAvgF,DewpointLowF,HumidityHigh,HumidityAvg,HumidityLow,PressureMaxIn,PressureMinIn,WindSpeedMaxMPH,WindSpeedAvgMPH,GustSpeedMaxMPH,PrecipitationSumIn
2013-9-1,87,75,70,-100,-100,-100,0,0,100,0.00,40.00,0,-999,0,0.00
2013-9-2,71,70,67,-100,-100,-100,0,0,100,0.00,40.00,0,-999,0,0.00
2013-9-3,79,70,61,-100,-100,-100,0,0,100,0.00,40.00,0,-999,0,0.00
2013-9-4,79,66,56,-100,-100,-100,0,0,100,0.00,40.00,0,-999,0,0.00
2013-9-5,70,60,48,-100,-100,-100,0,0,100,0.00,40.00,0,-999,0,0.00
2013-9-6,68,53,41,-100,-100,-100,0,0,100,0.00,40.00,0,-999,0,0.00
2013-9-7,77,60,45,-100,-100,-100,0,0,100,0.00,40.00,0,-999,0,0.00
2013-9-8,69,61,48,-100,-100,-100,0,0,100,0.00,40.00,0,-999,0,0.00
2013-9-9,69,53,38,-100,-100,-100,0,0,100,0.00,40.00,0,-999,0,0.00
2013-9-10,72,60,47,-100,-100,-100,0,0,100,0.00,40.00,0,-999,0,0.00
2013-9-11,92,76,66,-100,-100,-100,0,0,100,0.00,40.00,0,-999,0,0.00
2013-9-12,81,69,64,-100,-100,-100,0,0,100,0.00,40.00,0,-999,0,0.00
2013-9-13,71,65,56,-100,-100,-100,0,0,100,0.00,40.00,0,-999,0,0.00
2013-9-14,69,59,50,-100,-100,-100,0,0,100,0.00,40.00,0,-999,0,0.00
2013-9-15,70,53,43,-100,-100,-100,0,0,100,0.00,40.00,0,-999,0,0.00
2013-9-16,65,56,46,-100,-100,-100,0,0,100,0.00,40.00,0,-999,0,0.00
2013-9-17,64,49,35,-100,-100,-100,0,0,100,0.00,40.00,0,-999,0,0.00
2013-9-18,48,40,37,-100,-100,-100,0,0,100,0.00,40.00,0,-999,0,0.00
2013-9-19,75,56,41,-100,-100,-100,0,0,100,0.00,40.00,0,-999,0,0.00
2013-9-20,75,58,46,-100,-100,-100,0,0,100,0.00,40.00,0,-999,0,0.00
2013-9-21,72,60,51,-100,-100,-100,0,0,100,0.00,40.00,0,-999,0,0.00
2013-9-22,69,63,52,-100,-100,-100,0,0,100,0.00,40.00,0,-999,0,0.00
2013-9-23,59,51,41,-100,-100,-100,0,0,100,0.00,40.00,0,-999,0,0.00
2013-9-24,63,48,36,-100,-100,-100,0,0,100,0.00,40.00,0,-999,0,0.00
2013-9-25,61,51,39,-100,-100,-100,0,0,100,0.00,40.00,0,-999,0,0.00
2013-9-26,67,55,43,-100,-100,-100,0,0,100,0.00,40.00,0,-999,0,0.00
2013-9-27,68,58,49,-100,-100,-100,0,0,100,0.00,40.00,0,-999,0,0.00
2013-9-28,71,55,45,-100,-100,-100,0,0,100,0.00,40.00,0,-999,0,0.00
2013-9-29,65,50,38,-100,-100,-100,0,0,100,0.00,40.00,0,-999,0,0.00
2013-9-30,67,50,39,-100,-100,-100,0,0,100,0.00,40.00,0,-999,0,0.00